Time;durP1;ratioP1;P1;durP2;ratioP2;P2;SDS_P1;SDS_P2;PMS_P1;PMS_P2;Temp;Humidity;BMP_temperature;BMP_pressure;BME280_temperature;BME280_humidity;BME280_pressure;Samples;Min_cycle;Max_cycle;Signal;HPM_P1;HPM_P2
2022/06/27 00:03:43;;;;;;;;;;;;;;;22.30;61.15;95747.31;10372660;28;97131;-72
2022/06/27 00:08:48;;;;;;;5.53;2.30;;;;;;;22.18;62.26;95740.16;10374194;28;98223;-71
2022/06/27 00:13:52;;;;;;;2.58;1.73;;;;;;;22.10;62.79;95740.50;10376484;28;97320;-71
2022/06/27 00:18:54;;;;;;;;;;;;;;;22.04;62.14;95744.13;10374706;28;96849;-71
2022/06/27 00:23:57;;;;;;;4.40;1.92;;;;;;;21.91;62.40;95752.31;10374998;28;97536;-72
2022/06/27 00:29:01;;;;;;;4.47;1.80;;;;;;;21.82;61.97;95752.66;10372737;28;97215;-72
2022/06/27 00:34:04;;;;;;;;;;;;;;;21.75;61.80;95741.31;10370925;28;98459;-71
2022/06/27 00:39:07;;;;;;;6.07;1.48;;;;;;;21.72;61.21;95755.06;10371006;28;98621;-71
2022/06/27 00:44:11;;;;;;;2.78;1.70;;;;;;;21.73;61.03;95750.56;10373787;28;99047;-71
2022/06/27 00:49:14;;;;;;;5.00;1.77;;;;;;;21.77;61.08;95754.38;10374885;28;96842;-71
2022/06/27 00:54:17;;;;;;;3.08;1.63;;;;;;;21.77;60.74;95755.19;10371344;28;96815;-71
2022/06/27 00:59:21;;;;;;;3.40;1.40;;;;;;;21.69;60.99;95758.19;10372114;28;97462;-71
2022/06/27 01:04:25;;;;;;;6.15;2.00;;;;;;;21.71;60.79;95756.13;10374966;28;100399;-71
2022/06/27 01:09:28;;;;;;;2.83;1.43;;;;;;;21.66;60.51;95761.31;10373595;28;96965;-71
2022/06/27 01:14:33;;;;;;;3.70;1.63;;;;;;;21.66;60.59;95772.75;10374629;28;96760;-71
2022/06/27 01:19:36;;;;;;;2.95;1.45;;;;;;;21.68;60.45;95775.19;10375484;28;96826;-71
2022/06/27 01:24:40;;;;;;;4.63;1.83;;;;;;;21.67;60.32;95773.56;10374311;28;97013;-71
2022/06/27 01:29:43;;;;;;;2.75;1.33;;;;;;;21.66;60.28;95782.59;10371389;28;96992;-75
2022/06/27 01:34:45;;;;;;;3.58;1.85;;;;;;;21.64;60.70;95787.28;10372746;28;97290;-73
2022/06/27 01:39:50;;;;;;;2.65;1.73;;;;;;;21.60;60.99;95792.22;10371004;28;97064;-71
2022/06/27 01:44:53;;;;;;;2.47;1.40;;;;;;;21.51;60.90;95791.75;10373106;28;100023;-71
2022/06/27 01:49:55;;;;;;;3.45;1.67;;;;;;;21.44;61.18;95788.38;10370099;28;98494;-72
2022/06/27 01:54:59;;;;;;;5.88;1.70;;;;;;;21.33;61.74;95799.81;10374142;28;97050;-71
2022/06/27 02:00:01;;;;;;;3.75;1.52;;;;;;;21.22;61.48;95795.25;10369237;28;98780;-71
2022/06/27 02:05:05;;;;;;;2.72;1.50;;;;;;;21.20;61.81;95797.31;10373378;28;100568;-71
2022/06/27 02:10:10;;;;;;;2.45;1.63;;;;;;;21.08;61.99;95803.38;10369944;28;97538;-75
2022/06/27 02:15:14;;;;;;;4.53;1.50;;;;;;;21.03;62.52;95811.25;10364415;28;98571;-72
2022/06/27 02:20:17;;;;;;;2.63;1.20;;;;;;;20.94;62.53;95809.91;10377059;28;96862;-71
2022/06/27 02:25:21;;;;;;;2.63;1.20;;;;;;;20.87;63.12;95820.59;10372923;28;96879;-72
2022/06/27 02:30:24;;;;;;;2.50;0.80;;;;;;;20.71;62.56;95818.53;10371776;28;96931;-71
2022/06/27 02:35:28;;;;;;;2.35;0.95;;;;;;;20.60;62.47;95824.56;10371216;28;97082;-71
2022/06/27 02:40:32;;;;;;;1.75;0.80;;;;;;;20.49;62.72;95826.09;10371376;28;98548;-71
2022/06/27 02:45:37;;;;;;;1.20;0.80;;;;;;;20.47;62.06;95822.88;10369758;28;96947;-71
2022/06/27 02:50:42;;;;;;;1.92;0.70;;;;;;;20.44;62.44;95834.72;10370483;28;96883;-71
2022/06/27 02:55:50;;;;;;;2.67;0.80;;;;;;;20.47;62.31;95839.59;10373599;28;96967;-71
2022/06/27 03:00:56;;;;;;;0.68;0.57;;;;;;;20.53;61.78;95837.94;10371063;28;98911;-71
2022/06/27 03:06:01;;;;;;;1.20;0.70;;;;;;;20.55;61.30;95846.47;10369389;28;96926;-71
2022/06/27 03:11:05;;;;;;;1.70;0.70;;;;;;;20.57;61.99;95833.78;10369176;28;98604;-71
2022/06/27 03:16:08;;;;;;;;;;;;;;;20.57;61.24;95833.78;10372153;28;98626;-71
2022/06/27 03:21:11;;;;;;;2.00;0.90;;;;;;;20.54;61.59;95856.25;10369905;28;96967;-71
2022/06/27 03:26:17;;;;;;;3.65;0.70;;;;;;;20.59;61.50;95858.25;10366033;28;97256;-71
2022/06/27 03:31:20;;;;;;;2.17;0.70;;;;;;;20.48;62.29;95861.66;10379941;28;99269;-71
2022/06/27 03:36:23;;;;;;;2.05;0.70;;;;;;;20.53;63.09;95859.94;10373053;28;97654;-71
2022/06/27 03:41:27;;;;;;;2.88;0.90;;;;;;;20.61;62.74;95856.19;10372180;28;96955;-71
2022/06/27 03:46:30;;;;;;;2.35;0.77;;;;;;;20.64;62.50;95865.56;10375899;28;97534;-71
2022/06/27 03:51:33;;;;;;;1.65;0.60;;;;;;;20.48;63.51;95861.66;10372242;28;98580;-72
2022/06/27 03:56:37;;;;;;;1.17;0.85;;;;;;;20.38;63.46;95875.41;10371656;28;96811;-71
2022/06/27 04:01:40;;;;;;;3.33;0.70;;;;;;;20.33;63.23;95870.75;10377235;28;97017;-71
2022/06/27 04:06:43;;;;;;;1.00;0.60;;;;;;;20.35;62.99;95879.28;10374608;28;99504;-71
2022/06/27 04:11:48;;;;;;;2.30;0.70;;;;;;;20.40;63.27;95891.09;10375419;28;98437;-71
2022/06/27 04:16:52;;;;;;;2.47;0.85;;;;;;;20.40;63.66;95888.44;10375748;28;97711;-71
2022/06/27 04:21:54;;;;;;;1.63;0.80;;;;;;;20.32;63.78;95890.34;10378256;28;96873;-71
2022/06/27 04:26:59;;;;;;;4.72;1.17;;;;;;;20.35;64.42;95892.56;10372592;28;96906;-71
2022/06/27 04:32:02;;;;;;;2.60;0.90;;;;;;;20.31;64.33;95898.53;10373439;28;96886;-72
2022/06/27 04:37:05;;;;;;;3.28;1.13;;;;;;;20.25;65.50;95908.19;10371379;28;99938;-71
2022/06/27 04:42:09;;;;;;;3.45;1.00;;;;;;;20.18;66.11;95900.25;10371993;28;96960;-71
2022/06/27 04:47:13;;;;;;;1.88;1.10;;;;;;;20.14;66.39;95914.16;10371257;28;98398;-71
2022/06/27 04:52:16;;;;;;;3.40;1.15;;;;;;;20.13;67.19;95917.84;10374116;28;97740;-71
2022/06/27 04:57:21;;;;;;;3.45;1.10;;;;;;;20.12;66.96;95906.41;10369063;28;97623;-71
2022/06/27 05:02:24;;;;;;;3.08;1.05;;;;;;;20.16;66.71;95914.75;10368809;28;97228;-72
2022/06/27 05:07:28;;;;;;;1.70;0.98;;;;;;;20.24;66.41;95911.03;10374739;28;97269;-71
2022/06/27 05:12:32;;;;;;;;;;;;;;;20.32;65.94;95926.66;10376086;28;98644;-71
2022/06/27 05:17:35;;;;;;;2.45;1.08;;;;;;;20.34;66.63;95941.34;10372357;28;98242;-71
2022/06/27 05:22:39;;;;;;;1.65;1.00;;;;;;;20.41;66.69;95940.47;10374403;28;98685;-72
2022/06/27 05:27:44;;;;;;;2.77;1.00;;;;;;;20.43;66.80;95944.53;10370214;28;97009;-71
2022/06/27 05:32:47;;;;;;;3.38;1.45;;;;;;;20.49;67.02;95948.16;10370925;28;98760;-71
2022/06/27 05:37:50;;;;;;;2.05;1.13;;;;;;;20.50;66.07;95949.81;10371559;28;100555;-71
2022/06/27 05:42:57;;;;;;;1.17;0.83;;;;;;;20.41;66.78;95956.38;10373300;28;97235;-72
2022/06/27 05:48:01;;;;;;;1.90;0.90;;;;;;;20.44;66.43;95956.75;10370369;28;98419;-71
2022/06/27 05:53:04;;;;;;;2.10;0.90;;;;;;;20.49;65.99;95953.47;10372099;28;97699;-71
2022/06/27 05:58:10;;;;;;;2.78;1.00;;;;;;;20.53;66.33;95968.75;10371781;28;96815;-71
2022/06/27 06:03:12;;;;;;;1.77;1.08;;;;;;;20.52;65.97;95968.97;10368835;28;96929;-71
2022/06/27 06:08:20;;;;;;;2.70;1.05;;;;;;;20.56;66.31;95975.44;10372880;28;97017;-71
2022/06/27 06:13:25;;;;;;;3.40;1.45;;;;;;;20.72;66.28;95979.41;10370555;28;97234;-72
2022/06/27 06:18:29;;;;;;;3.92;1.13;;;;;;;20.89;66.26;95982.34;10366991;28;96896;-71
2022/06/27 06:23:32;;;;;;;1.60;1.10;;;;;;;21.10;66.17;95986.41;10365250;28;96869;-71
2022/06/27 06:28:36;;;;;;;3.00;1.10;;;;;;;21.33;65.42;95991.09;10376429;28;96801;-71
2022/06/27 06:33:40;;;;;;;2.28;1.10;;;;;;;21.50;65.07;95992.13;10369320;28;96968;-71
2022/06/27 06:38:43;;;;;;;3.92;1.02;;;;;;;21.58;63.65;96001.63;10364942;28;98633;-71
2022/06/27 06:43:48;;;;;;;4.47;1.05;;;;;;;21.76;63.34;96010.66;10369240;28;98419;-67
2022/06/27 06:49:02;;;;;;;3.42;1.25;;;;;;;21.86;63.67;96014.38;10367412;28;97182;-68
2022/06/27 06:54:06;;;;;;;;;;;;;;;21.91;63.31;96026.22;10371671;28;97573;-68
2022/06/27 06:59:10;;;;;;;3.00;1.17;;;;;;;21.88;63.36;96041.59;10369630;28;97414;-70
2022/06/27 07:04:14;;;;;;;;;;;;;;;21.81;63.42;96040.84;10357959;28;97389;-68
2022/06/27 07:09:17;;;;;;;2.47;1.00;;;;;;;21.72;63.01;96058.13;10287275;28;97361;-67
2022/06/27 07:14:21;;;;;;;4.50;1.10;;;;;;;21.58;63.25;96056.63;10287709;28;97190;-68
2022/06/27 07:19:25;;;;;;;2.90;1.00;;;;;;;21.53;63.26;96064.47;10287240;28;96951;-68
2022/06/27 07:24:28;;;;;;;2.55;0.80;;;;;;;21.46;62.85;96065.34;10290848;28;97077;-68
2022/06/27 07:29:32;;;;;;;3.65;1.00;;;;;;;21.40;62.16;96071.53;10290576;28;96911;-69
2022/06/27 07:34:34;;;;;;;;;;;;;;;21.30;62.45;96087.19;10294668;28;96794;-68
2022/06/27 07:39:38;;;;;;;2.22;0.88;;;;;;;21.15;62.17;96094.66;10284743;28;96961;-67
2022/06/27 07:44:42;;;;;;;2.10;0.82;;;;;;;21.01;63.20;96092.13;10294155;28;96957;-70
2022/06/27 07:49:45;;;;;;;3.08;0.90;;;;;;;20.91;63.39;96105.06;10293160;28;96987;-68
2022/06/27 07:54:48;;;;;;;4.95;1.10;;;;;;;20.86;63.98;96110.22;10292302;28;97374;-67
2022/06/27 07:59:54;;;;;;;3.00;1.10;;;;;;;20.83;63.46;96126.59;10294711;28;96793;-67
2022/06/27 08:04:58;;;;;;;2.35;0.90;;;;;;;20.82;63.73;96130.25;10301663;28;96759;-69
2022/06/27 08:10:01;;;;;;;2.80;0.93;;;;;;;20.80;63.27;96130.47;10387432;28;96931;-69
2022/06/27 08:15:06;;;;;;;2.55;1.00;;;;;;;20.84;63.55;96125.53;10391574;27;98221;-68
2022/06/27 08:20:11;;;;;;;3.05;0.70;;;;;;;20.77;60.62;96154.78;10383596;28;97764;-69
2022/06/27 08:25:15;;;;;;;2.85;0.77;;;;;;;20.82;58.82;96162.13;10394518;28;96826;-69
2022/06/27 08:30:25;;;;;;;0.57;0.50;;;;;;;20.62;57.50;96157.72;10394650;28;97414;-67
2022/06/27 08:35:29;;;;;;;1.00;0.43;;;;;;;20.56;56.17;96166.53;10390844;28;96992;-67
2022/06/27 08:40:33;;;;;;;1.23;0.60;;;;;;;20.57;56.10;96184.88;10392392;28;97084;-67
2022/06/27 08:45:39;;;;;;;1.45;0.40;;;;;;;20.42;55.28;96172.94;10393777;28;96758;-68
2022/06/27 08:50:44;;;;;;;1.33;0.60;;;;;;;20.27;55.30;96179.31;10392019;28;96878;-68
2022/06/27 08:55:48;;;;;;;1.25;0.40;;;;;;;20.09;56.06;96176.53;10385937;28;96955;-67
2022/06/27 09:00:53;;;;;;;1.10;0.30;;;;;;;19.99;56.90;96185.75;10387200;28;96935;-67
2022/06/27 09:05:58;;;;;;;1.02;0.22;;;;;;;20.04;56.02;96189.59;10394114;28;96699;-67
2022/06/27 09:11:01;;;;;;;;;;;;;;;19.91;55.45;96179.84;10386663;28;96989;-68
2022/06/27 09:16:06;;;;;;;0.40;0.40;;;;;;;19.86;55.81;96191.06;10394078;28;97304;-67
2022/06/27 09:21:11;;;;;;;0.68;0.30;;;;;;;20.09;55.31;96192.44;10392853;28;96864;-67
2022/06/27 09:26:17;;;;;;;1.15;0.28;;;;;;;20.21;55.40;96196.06;10386919;27;96868;-67
2022/06/27 09:31:36;;;;;;;1.27;0.40;;;;;;;20.10;55.21;96202.03;10389519;28;97060;-67
2022/06/27 09:36:42;;;;;;;0.20;0.20;;;;;;;20.15;55.27;96212.84;10394225;28;96966;-67
2022/06/27 09:41:50;;;;;;;0.73;0.32;;;;;;;20.06;55.39;96222.00;10389579;28;97871;-67
2022/06/27 09:47:03;;;;;;;0.52;0.38;;;;;;;19.89;55.48;96219.81;10379712;28;97193;-68
2022/06/27 09:52:08;;;;;;;0.20;0.20;;;;;;;19.66;56.57;96222.06;10388584;28;96924;-67
2022/06/27 09:57:12;;;;;;;0.45;0.30;;;;;;;19.66;55.96;96225.50;10392493;28;99623;-67
2022/06/27 10:02:21;;;;;;;0.45;0.20;;;;;;;19.78;56.49;96223.88;10386408;28;96798;-68
2022/06/27 10:07:25;;;;;;;0.55;0.30;;;;;;;19.72;56.20;96227.34;10384685;28;101492;-67
2022/06/27 10:12:31;;;;;;;0.20;0.10;;;;;;;19.58;56.28;96239.00;10392305;28;97831;-67
2022/06/27 10:17:37;;;;;;;0.63;0.30;;;;;;;19.92;55.45;96245.94;10387218;28;96985;-67
2022/06/27 10:22:41;;;;;;;0.20;0.10;;;;;;;20.15;54.39;96240.16;10387683;28;97902;-68
2022/06/27 10:27:44;;;;;;;0.17;0.17;;;;;;;20.56;52.64;96235.53;10386012;28;97982;-67
2022/06/27 10:32:48;;;;;;;1.08;0.17;;;;;;;20.97;52.91;96241.50;10381273;28;97155;-67
2022/06/27 10:37:51;;;;;;;1.10;0.40;;;;;;;21.32;51.90;96234.72;10381837;28;96910;-68
2022/06/27 10:42:54;;;;;;;0.40;0.40;;;;;;;21.69;51.60;96226.91;10386755;28;99545;-67
2022/06/27 10:48:01;;;;;;;0.40;0.30;;;;;;;22.21;50.48;96221.28;10391403;28;96762;-69
2022/06/27 10:53:24;;;;;;;0.73;0.40;;;;;;;22.86;49.40;96232.41;10381394;28;101459;-68
2022/06/27 10:58:29;;;;;;;0.70;0.35;;;;;;;23.21;48.68;96245.84;10378816;28;96741;-68
2022/06/27 11:03:39;;;;;;;0.88;0.50;;;;;;;23.36;48.06;96248.91;10387526;28;96889;-68
2022/06/27 11:08:44;;;;;;;0.50;0.50;;;;;;;23.51;48.11;96256.47;10382864;28;97803;-70
2022/06/27 11:13:55;;;;;;;0.40;0.30;;;;;;;23.65;47.24;96241.06;10384824;28;96782;-69
2022/06/27 11:19:02;;;;;;;0.75;0.40;;;;;;;23.84;47.10;96230.31;10378493;28;96830;-67
2022/06/27 11:24:07;;;;;;;0.55;0.40;;;;;;;24.13;47.69;96221.38;10388653;28;96943;-67
2022/06/27 11:34:40;;;;;;;1.23;0.20;;;;;;;24.68;45.35;96221.97;10380301;28;96951;-68
2022/06/27 11:39:58;;;;;;;1.23;0.40;;;;;;;24.60;45.65;96233.81;10389553;28;97405;-68
2022/06/27 11:45:06;;;;;;;1.52;0.52;;;;;;;24.45;46.12;96228.16;10389885;28;96938;-68
2022/06/27 11:50:13;;;;;;;0.77;0.40;;;;;;;24.53;46.20;96224.34;10383812;28;96896;-68
2022/06/27 11:55:17;;;;;;;0.77;0.40;;;;;;;24.86;45.52;96229.81;10393693;28;96784;-69
2022/06/27 12:00:22;;;;;;;0.63;0.50;;;;;;;25.00;45.91;96234.88;10394586;28;97068;-68
2022/06/27 12:05:27;;;;;;;1.88;0.60;;;;;;;25.29;45.53;96232.19;10392225;28;97983;-68
2022/06/27 12:10:36;;;;;;;0.68;0.32;;;;;;;25.56;45.01;96237.72;10387575;28;96791;-68
2022/06/27 12:15:41;;;;;;;0.90;0.60;;;;;;;25.83;45.00;96232.53;10395494;28;96817;-68
2022/06/27 12:20:45;;;;;;;1.15;0.50;;;;;;;25.97;44.95;96241.84;10382795;28;96939;-68
2022/06/27 12:25:48;;;;;;;0.90;0.38;;;;;;;25.85;44.43;96229.63;10390578;28;96936;-68
2022/06/27 12:30:51;;;;;;;0.63;0.40;;;;;;;25.81;44.39;96240.81;10395420;28;99558;-69
2022/06/27 12:35:56;;;;;;;2.10;0.52;;;;;;;25.69;44.65;96248.13;10394251;28;97022;-69
2022/06/27 12:41:12;;;;;;;1.30;0.47;;;;;;;25.68;45.36;96243.81;10403702;28;96949;-68
2022/06/27 12:46:17;;;;;;;0.40;0.40;;;;;;;25.91;44.61;96237.50;10394525;28;96886;-68
2022/06/27 12:51:23;;;;;;;1.08;0.52;;;;;;;26.02;44.02;96251.03;10389479;28;96876;-68
2022/06/27 12:56:26;;;;;;;1.90;0.70;;;;;;;25.92;43.91;96246.31;10389225;28;97670;-70
2022/06/27 13:01:29;;;;;;;1.25;0.40;;;;;;;25.53;44.25;96252.38;10373307;28;97372;-68
2022/06/27 13:06:34;;;;;;;1.00;0.33;;;;;;;25.49;45.09;96256.56;10391049;28;96790;-68
2022/06/27 13:11:37;;;;;;;1.85;0.82;;;;;;;25.77;44.70;96244.22;10390175;28;96821;-68
2022/06/27 13:16:40;;;;;;;0.82;0.60;;;;;;;25.56;44.60;96245.75;10384905;28;99772;-68
2022/06/27 13:21:45;;;;;;;2.47;0.50;;;;;;;25.65;44.36;96251.50;10388982;28;96836;-69
2022/06/27 13:26:47;;;;;;;0.80;0.40;;;;;;;26.02;43.58;96261.72;10385054;28;97041;-68
2022/06/27 13:31:52;;;;;;;0.43;0.40;;;;;;;26.22;43.73;96267.34;10385105;28;98588;-68
2022/06/27 13:37:03;;;;;;;1.08;0.65;;;;;;;26.44;44.03;96274.66;10386146;28;97321;-68
2022/06/27 13:42:06;;;;;;;1.25;0.63;;;;;;;26.48;43.24;96265.84;10388340;28;96999;-68
2022/06/27 13:47:10;;;;;;;2.05;0.43;;;;;;;26.83;43.53;96267.38;10385194;28;96855;-68
2022/06/27 13:52:14;;;;;;;1.17;0.68;;;;;;;27.06;42.72;96276.25;10378662;28;96999;-68
2022/06/27 13:57:17;;;;;;;1.33;0.40;;;;;;;26.82;42.89;96278.34;10384146;28;98411;-68
2022/06/27 14:02:24;;;;;;;1.40;0.68;;;;;;;26.83;42.51;96275.41;10383874;28;101865;-68
2022/06/27 14:07:39;;;;;;;1.63;0.50;;;;;;;26.60;42.72;96279.13;10375145;28;97341;-69
2022/06/27 14:12:43;;;;;;;0.70;0.70;;;;;;;26.35;42.90;96283.09;10386760;28;96985;-68
2022/06/27 14:17:56;;;;;;;1.65;0.60;;;;;;;26.13;43.42;96285.72;10382544;28;99417;-68
2022/06/27 14:23:00;;;;;;;1.10;0.40;;;;;;;25.96;44.01;96291.09;10370024;28;96878;-68
2022/06/27 14:28:04;;;;;;;1.17;0.50;;;;;;;25.78;44.63;96289.47;10384392;28;97020;-69
2022/06/27 14:33:07;;;;;;;1.02;0.50;;;;;;;26.10;44.12;96299.59;10388177;28;98800;-67
2022/06/27 14:38:27;;;;;;;1.50;0.60;;;;;;;26.41;43.02;96291.22;10380661;28;96955;-69
2022/06/27 14:43:30;;;;;;;2.33;0.60;;;;;;;26.49;43.07;96314.91;10381683;28;96798;-68
2022/06/27 14:48:33;;;;;;;1.10;0.50;;;;;;;26.41;43.05;96301.94;10387009;28;96765;-67
2022/06/27 14:53:37;;;;;;;2.80;0.43;;;;;;;26.47;42.94;96299.09;10385403;28;97048;-69
2022/06/27 14:58:40;;;;;;;1.75;0.50;;;;;;;26.45;42.85;96287.81;10383844;28;97184;-68
2022/06/27 15:03:43;;;;;;;2.60;0.50;;;;;;;26.28;42.99;96285.16;10387100;28;97901;-69
2022/06/27 15:08:47;;;;;;;0.40;0.40;;;;;;;26.01;43.64;96282.31;10386032;28;97213;-67
2022/06/27 15:13:50;;;;;;;0.40;0.40;;;;;;;25.85;43.75;96289.31;10381736;28;97255;-68
2022/06/27 15:18:53;;;;;;;0.57;0.50;;;;;;;25.74;43.81;96304.38;10381611;28;97525;-68
2022/06/27 15:23:57;;;;;;;1.13;0.60;;;;;;;25.49;44.50;96295.91;10391956;28;98613;-69
2022/06/27 15:29:00;;;;;;;0.82;0.60;;;;;;;25.24;44.90;96300.53;10375247;28;96915;-68
2022/06/27 15:34:03;;;;;;;0.60;0.50;;;;;;;25.10;45.02;96299.22;10393021;28;99759;-68
2022/06/27 15:39:07;;;;;;;0.80;0.50;;;;;;;25.08;44.81;96301.31;10394025;28;98022;-68
2022/06/27 15:44:10;;;;;;;1.23;0.45;;;;;;;24.82;45.28;96290.13;10386922;28;97961;-68
2022/06/27 15:49:13;;;;;;;1.80;0.50;;;;;;;24.52;45.73;96298.28;10392482;28;97045;-67
2022/06/27 15:54:17;;;;;;;0.68;0.40;;;;;;;24.46;45.95;96310.72;10391904;28;97063;-67
2022/06/27 15:59:25;;;;;;;1.25;0.60;;;;;;;24.22;46.34;96319.78;10389611;28;98017;-68
2022/06/27 16:04:28;;;;;;;1.75;0.75;;;;;;;23.97;46.84;96311.97;10383706;28;97153;-68
2022/06/27 16:09:32;;;;;;;2.72;0.57;;;;;;;23.80;47.32;96322.50;10389678;28;97326;-68
2022/06/27 16:14:35;;;;;;;1.30;0.70;;;;;;;23.55;47.79;96312.81;10388663;28;97103;-67
2022/06/27 16:19:38;;;;;;;3.38;0.65;;;;;;;23.53;49.01;96320.22;10388403;28;96818;-67
2022/06/27 16:25:03;;;;;;;1.40;0.60;;;;;;;23.37;49.44;96317.16;10391974;28;97408;-67
2022/06/27 16:30:07;;;;;;;0.80;0.80;;;;;;;23.23;48.94;96313.03;10382880;28;97452;-67
2022/06/27 16:35:10;;;;;;;2.08;0.82;;;;;;;23.23;49.48;96297.03;10385540;28;98432;-68
2022/06/27 16:40:14;;;;;;;1.58;0.95;;;;;;;23.28;49.64;96310.53;10389828;28;96910;-67
2022/06/27 16:45:17;;;;;;;1.55;0.55;;;;;;;23.43;49.02;96343.97;10390012;28;96806;-68
2022/06/27 16:50:20;;;;;;;1.70;0.85;;;;;;;23.32;48.97;96325.03;10377173;28;100751;-72
2022/06/27 16:55:24;;;;;;;0.95;0.80;;;;;;;23.36;49.53;96362.75;10372107;28;97737;-71
2022/06/27 17:00:27;;;;;;;2.58;0.75;;;;;;;23.21;49.32;96356.97;10369228;28;97583;-72
2022/06/27 17:05:30;;;;;;;0.95;0.60;;;;;;;23.02;48.96;96332.19;10362516;28;97657;-73
2022/06/27 17:10:35;;;;;;;1.97;0.80;;;;;;;23.04;48.15;96319.44;10373006;28;97724;-73
2022/06/27 17:15:40;;;;;;;1.92;0.80;;;;;;;23.29;48.05;96328.16;10368696;28;96917;-73
2022/06/27 17:20:43;;;;;;;1.20;0.60;;;;;;;23.33;47.86;96333.88;10369019;28;98379;-77
2022/06/27 17:25:48;;;;;;;1.60;0.70;;;;;;;23.37;48.74;96317.16;10369131;28;98765;-79
2022/06/27 17:30:51;;;;;;;1.50;0.80;;;;;;;23.12;49.23;96297.84;10368114;28;97187;-75
2022/06/27 17:35:54;;;;;;;1.45;0.60;;;;;;;22.80;50.46;96285.53;10370135;28;98638;-67
2022/06/27 17:40:59;;;;;;;1.73;0.97;;;;;;;22.62;51.13;96288.19;10369900;28;98802;-67
2022/06/27 17:46:02;;;;;;;2.50;0.93;;;;;;;22.48;51.88;96274.22;10367111;28;98523;-67
2022/06/27 17:51:05;;;;;;;2.03;0.70;;;;;;;22.53;51.51;96271.72;10369066;28;97579;-67
2022/06/27 17:56:09;;;;;;;1.58;0.70;;;;;;;22.58;51.82;96306.47;10369991;28;96917;-69
2022/06/27 18:01:12;;;;;;;;;;;;;;;22.69;50.93;96306.75;10371509;28;97582;-69
2022/06/27 18:06:35;;;;;;;1.92;0.80;;;;;;;23.73;49.11;96275.41;10366492;28;96886;-68
2022/06/27 18:11:39;;;;;;;6.80;2.25;;;;;;;25.03;47.09;96277.16;10363268;28;96939;-68
2022/06/27 18:16:42;;;;;;;2.70;1.20;;;;;;;24.78;46.86;96267.59;10368749;28;98374;-69
2022/06/27 18:21:45;;;;;;;4.63;1.90;;;;;;;23.97;48.66;96270.09;10369333;28;99018;-67
2022/06/27 18:26:49;;;;;;;2.25;0.73;;;;;;;23.12;50.07;96279.19;10368170;28;98951;-67
2022/06/27 18:31:52;;;;;;;2.33;0.68;;;;;;;22.65;50.52;96294.91;10370263;28;97145;-67
2022/06/27 18:36:55;;;;;;;1.95;0.85;;;;;;;22.25;51.39;96315.56;10363380;28;97079;-67
2022/06/27 18:42:00;;;;;;;1.80;0.90;;;;;;;21.97;51.75;96320.53;10367563;28;97559;-67
2022/06/27 18:47:03;;;;;;;1.30;0.90;;;;;;;21.69;52.55;96304.00;10380698;28;96873;-67
2022/06/27 18:52:06;;;;;;;1.02;0.60;;;;;;;21.40;53.19;96289.44;10368446;28;96990;-67
2022/06/27 18:57:10;;;;;;;1.63;0.60;;;;;;;21.22;54.05;96295.47;10367646;28;96968;-67
2022/06/27 19:02:13;;;;;;;;;;;;;;;21.11;53.46;96312.91;10372281;28;97502;-67
2022/06/27 19:07:16;;;;;;;1.02;0.63;;;;;;;20.99;53.93;96314.59;10372560;28;98319;-67
2022/06/27 19:12:22;;;;;;;1.23;0.80;;;;;;;20.85;54.76;96355.53;10365758;28;104361;-67
2022/06/27 19:17:25;;;;;;;2.75;0.65;;;;;;;20.77;54.39;96388.41;10371446;28;97368;-67
2022/06/27 19:22:28;;;;;;;0.93;0.70;;;;;;;20.56;55.34;96389.44;10371322;28;98430;-67
2022/06/27 19:27:33;;;;;;;1.98;0.82;;;;;;;20.40;55.79;96368.66;10367303;28;98465;-68
2022/06/27 19:32:36;;;;;;;2.28;1.00;;;;;;;20.33;55.92;96347.44;10363175;28;97807;-67
2022/06/27 19:37:40;;;;;;;;;;;;;;;20.28;55.11;96329.50;10373212;28;96728;-67
2022/06/27 19:42:45;;;;;;;1.77;0.80;;;;;;;20.16;55.76;96300.13;10367827;28;96982;-67
2022/06/27 19:47:48;;;;;;;1.75;0.77;;;;;;;20.07;56.15;96338.50;10369340;28;97849;-67
2022/06/27 19:52:51;;;;;;;2.03;0.70;;;;;;;19.94;56.68;96381.75;10370642;28;97302;-67
2022/06/27 19:57:55;;;;;;;2.38;1.05;;;;;;;19.74;57.14;96397.59;10366789;28;97409;-67
2022/06/27 20:02:59;;;;;;;1.10;1.00;;;;;;;19.60;57.34;96393.28;10366399;28;96838;-67
2022/06/27 20:08:02;;;;;;;1.53;0.73;;;;;;;19.47;57.79;96374.69;10367933;28;97690;-67
2022/06/27 20:13:07;;;;;;;2.78;1.35;;;;;;;19.34;58.03;96339.22;10376016;28;96854;-67
2022/06/27 20:18:10;;;;;;;1.48;0.68;;;;;;;19.30;58.62;96368.94;10375337;28;96941;-67
2022/06/27 20:23:14;;;;;;;2.20;0.70;;;;;;;19.15;58.18;96375.22;10368105;28;97836;-66
2022/06/27 20:28:18;;;;;;;1.87;0.90;;;;;;;19.17;58.02;96383.78;10371107;28;97910;-66
2022/06/27 20:33:21;;;;;;;4.72;1.77;;;;;;;19.19;57.17;96383.59;10369823;28;98029;-67
2022/06/27 20:38:24;;;;;;;1.02;0.80;;;;;;;19.12;58.54;96394.16;10365254;28;101141;-67
2022/06/27 20:43:28;;;;;;;1.70;1.20;;;;;;;19.11;58.59;96397.81;10363550;28;99197;-68
2022/06/27 20:48:31;;;;;;;7.70;1.35;;;;;;;19.09;58.83;96405.16;10372172;28;98618;-72
2022/06/27 20:53:34;;;;;;;3.63;1.10;;;;;;;18.97;58.58;96401.44;10372724;28;97214;-71
2022/06/27 20:58:38;;;;;;;1.27;0.80;;;;;;;18.62;60.80;96404.03;10370951;28;97521;-71
2022/06/27 21:03:41;;;;;;;2.75;1.58;;;;;;;18.28;61.15;96403.81;10370932;28;98744;-69
2022/06/27 21:14:07;;;;;;;3.58;1.70;;;;;;;18.36;60.76;96386.16;10371099;28;97383;-71
2022/06/27 21:19:10;;;;;;;5.15;2.47;;;;;;;18.33;60.60;96384.75;10372744;28;98135;-68
2022/06/27 21:24:14;;;;;;;4.43;3.00;;;;;;;18.29;61.01;96407.28;10371890;28;97989;-68
2022/06/27 21:29:19;;;;;;;3.40;1.55;;;;;;;18.22;62.69;96415.19;10371361;28;97322;-70
2022/06/27 21:34:22;;;;;;;1.13;0.95;;;;;;;18.13;62.53;96429.53;10371775;28;100524;-69
2022/06/27 21:39:25;;;;;;;2.88;1.30;;;;;;;18.02;64.09;96441.44;10368445;28;97047;-69
2022/06/27 21:44:29;;;;;;;1.50;1.20;;;;;;;17.97;64.19;96451.75;10369946;28;97188;-69
2022/06/27 21:49:32;;;;;;;3.40;1.23;;;;;;;17.89;64.91;96457.16;10369663;28;98862;-69
2022/06/27 21:54:35;;;;;;;1.40;0.95;;;;;;;17.72;65.22;96457.38;10369482;28;97009;-68
2022/06/27 21:59:40;;;;;;;1.85;1.17;;;;;;;17.67;65.33;96443.09;10369689;28;97669;-69
2022/06/27 22:04:43;;;;;;;;;;;;;;;17.64;64.58;96439.00;10367390;28;96894;-69
2022/06/27 22:09:46;;;;;;;1.50;0.70;;;;;;;17.60;64.37;96437.75;10364822;28;101951;-68
2022/06/27 22:14:52;;;;;;;2.17;1.00;;;;;;;17.61;64.47;96439.38;10366122;28;97318;-69
2022/06/27 22:19:55;;;;;;;1.00;0.73;;;;;;;17.60;64.95;96440.38;10370600;28;97149;-69
2022/06/27 22:25:03;;;;;;;1.40;0.85;;;;;;;17.48;64.79;96433.97;10370970;28;96744;-68
2022/06/27 22:30:09;;;;;;;1.10;0.90;;;;;;;17.41;64.89;96459.47;10366136;28;97005;-69
2022/06/27 22:35:13;;;;;;;1.63;0.85;;;;;;;17.41;64.96;96475.31;10367369;28;98040;-68
2022/06/27 22:40:16;;;;;;;1.83;0.75;;;;;;;17.46;65.25;96465.03;10367972;28;98543;-68
2022/06/27 22:45:20;;;;;;;2.55;0.98;;;;;;;17.50;64.61;96456.53;10366946;28;97019;-70
2022/06/27 22:50:23;;;;;;;0.95;0.80;;;;;;;17.52;64.22;96451.06;10367852;28;97554;-68
2022/06/27 22:55:26;;;;;;;1.73;0.80;;;;;;;17.54;64.43;96422.63;10370619;28;98908;-68
2022/06/27 23:00:30;;;;;;;2.15;0.90;;;;;;;17.52;64.30;96424.66;10366187;28;98448;-68
2022/06/27 23:05:33;;;;;;;3.83;1.00;;;;;;;17.60;64.27;96437.75;10367748;28;96815;-68
2022/06/27 23:10:36;;;;;;;3.10;0.90;;;;;;;17.63;64.49;96420.69;10375149;28;96885;-67
2022/06/27 23:15:40;;;;;;;4.57;1.00;;;;;;;17.55;65.22;96408.44;10365336;28;96787;-68
2022/06/27 23:20:44;;;;;;;1.65;0.90;;;;;;;17.53;65.36;96421.00;10363254;28;97139;-68
2022/06/27 23:25:47;;;;;;;1.30;0.77;;;;;;;17.48;65.28;96428.69;10370590;28;97730;-68
2022/06/27 23:30:52;;;;;;;2.45;0.90;;;;;;;17.44;65.51;96406.25;10369355;28;96927;-68
2022/06/27 23:35:54;;;;;;;;;;;;;;;17.42;64.60;96408.28;10364592;28;97800;-68
2022/06/27 23:40:58;;;;;;;2.55;0.80;;;;;;;17.36;64.90;96421.22;10372534;28;97001;-68
2022/06/27 23:46:03;;;;;;;0.95;0.73;;;;;;;17.38;65.42;96423.69;10371776;28;96886;-68
2022/06/27 23:51:05;;;;;;;2.97;1.00;;;;;;;17.36;64.60;96421.22;10374285;28;96883;-68
2022/06/27 23:56:08;;;;;;;3.38;1.00;;;;;;;17.43;64.54;96408.09;10373211;28;100469;-67
